Nearby METAR Reports

 

KSJC - San Jose, California, USA
Distance from station: NE 14km
Updated: 07/05/2021 01:53
Partly cloudy
Partly cloudy
 Wind from N
Wind: N 33 km/h
Temperature: 19°C
Dew Point: 10°C
Humidity: 56%
Barometer: 1017.9 hPa
Clouds: Partly cloudy
Visibility: 16 km
Cloud details: Few Clouds 3048 m
Partly cloudy 4877 m
2021/05/06 22:53 KSJC 062253Z 35018KT 10SM FEW100 SCT160 19/10 A3006 RMK AO2 SLP177 T01940100
KNUQ - Moffett Nas/Mtn, California, USA
Distance from station: N 14km
Updated: 14/04/2021 01:40
NOT Current

 
2021/04/13 22:40 KNUQ 132240Z AUTO RMK AO2 PNO PWINO TSNO
 
KPAO - Palo Alto, California, USA
Distance from station: NNW 23km
Updated: 07/05/2021 01:47
Clear
Clear
 Wind from SSW
Wind: SSW 28 km/h, Gust: 41 km/h
Temperature: 20°C
Dew Point: 9°C
Humidity: 49%
Barometer: 1018.3 hPa
Clouds: Clear
Visibility: 16 km
2021/05/06 22:47 KPAO 062247Z 21015G22KT 10SM SKC 20/09 A3007
KRHV - San Jose/Reid, California, USA
Distance from station: ENE 19km
Updated: 07/05/2021 01:47
Clear
Clear
 Wind from NW
Wind: NW 26 km/h, Gust: 39 km/h
Temperature: 22°C
Dew Point: 9°C
Humidity: 44%
Barometer: 1017.9 hPa
Clouds: Clear
Visibility: 16 km
2021/05/06 22:47 KRHV 062247Z 31014G21KT 10SM SKC 22/09 A3006
 
KOAK - Oakland, California, USA
Distance from station: NNW 50km
Updated: 07/05/2021 01:53
Mostly cloudy
Mostly cloudy
 Wind from W
Wind: W 22 km/h
Temperature: 17°C
Dew Point: 11°C
Humidity: 68%
Barometer: 1018.3 hPa
Clouds: Mostly cloudy
Visibility: 16 km
Cloud details: Few Clouds 244 m
Partly cloudy 366 m
Mostly cloudy 6096 m
2021/05/06 22:53 KOAK 062253Z 26012KT 10SM FEW008 SCT012 BKN200 17/11 A3007 RMK AO2 SLP184 T01670106
KSQL - San Carlos Airpo, California, USA
Distance from station: NW 34km
Updated: 07/05/2021 01:47
Clear
Clear
 Wind from WSW
Wind: WSW 28 km/h, Gust: 43 km/h
Temperature: 19°C
Dew Point: 10°C
Humidity: 56%
Barometer: 1018.6 hPa
Clouds: Clear
Visibility: 16 km
2021/05/06 22:47 KSQL 062247Z 24015G23KT 10SM SKC 19/10 A3008
 
KSFO - San Francisco, California, USA
Distance from station: NW 49km
Updated: 07/05/2021 00:56
Mostly cloudy
Mostly cloudy
 Wind from WNW
Wind: WNW 24 km/h, Gust: 39 km/h
Temperature: 16°C
Dew Point: 9°C
Humidity: 63%
Barometer: 1019 hPa
Clouds: Mostly cloudy
Visibility: 16 km
Cloud details: Few Clouds 122 m
Mostly cloudy 427 m
Mostly cloudy 6096 m
2021/05/06 21:56 KSFO 062156Z 29013G21KT 10SM FEW004 BKN014 BKN200 16/09 A3009 RMK AO2 SLP187 T01610094
KE16 - San Martin, California, USA
Distance from station: ESE 43km
Updated: 07/05/2021 01:35
Clear
Clear
 Wind from NW
Wind: NW 19 km/h, Gust: 33 km/h
Temperature: 24°C
Dew Point: 6°C
Humidity: 31%
Barometer: 1016.9 hPa
Clouds: Clear
Visibility: 16 km
2021/05/06 22:35 KE16 062235Z AUTO 32010G18KT 10SM CLR 24/06 A3003 RMK AO2 PWINO PNO
 
KWVI - Watsonville, California, USA
Distance from station: SSE 44km
Updated: 07/05/2021 01:53
Clear
Clear
 Wind from S
Wind: S 11 km/h
Temperature: 19°C
Dew Point: 10°C
Humidity: 56%
Barometer: 1017.6 hPa
Clouds: Clear
Visibility: 16 km
2021/05/06 22:53 KWVI 062253Z AUTO 18006KT 10SM CLR 19/10 A3005 RMK AO2 SLP174 T01940100
KHAF - Half Moon Bay, California, USA
Distance from station: WNW 50km
Updated: 07/05/2021 01:55
Mist, Overcast
Mist, Overcast
 Wind from NNW
Wind: NNW 17 km/h
Temperature: 12°C
Dew Point: 10°C
Humidity: 88%
Barometer: 1020 hPa
Summary: Mist
Clouds: Overcast
Visibility: 2 km
Cloud details: Overcast 91 m
2021/05/06 22:55 KHAF 062255Z AUTO 33009KT 1SM BR OVC003 12/10 A3012 RMK AO2
 
KHWD - Hayward, California, USA
Distance from station: N 44km
Updated: 07/05/2021 01:54
Overcast
Overcast
 Wind from W
Wind: W 24 km/h
Temperature: 16°C
Dew Point: 11°C
Humidity: 72%
Barometer: 1018.6 hPa
Clouds: Overcast
Visibility: 16 km
Cloud details: Overcast 396 m
2021/05/06 22:54 KHWD 062254Z 26013KT 10SM OVC013 16/11 A3008 RMK AO2 SLP195 T01610106
KLVK - Livermore, California, USA
Distance from station: NNE 51km
Updated: 07/05/2021 01:53
Clear
Clear
 Wind from W
Wind: W 28 km/h
Temperature: 22°C
Dew Point: 8°C
Humidity: 41%
Barometer: 1016.9 hPa
Clouds: Clear
Visibility: 16 km
2021/05/06 22:53 KLVK 062253Z 28015KT 10SM CLR 22/08 A3003 RMK AO2 SLP165 T02170078